createdAt,value
2019-04-07T00:00:16.537Z,94.20
2019-04-07T00:02:45.253Z,94.10
2019-04-07T00:05:14.777Z,94.40
2019-04-07T00:07:43.647Z,94.30
2019-04-07T00:10:12.881Z,94.20
2019-04-07T00:12:41.447Z,94.30
2019-04-07T00:15:10.424Z,94.20
2019-04-07T00:17:39.170Z,94.30
2019-04-07T00:20:08.797Z,94.40
2019-04-07T00:22:38.007Z,94.60
2019-04-07T00:25:07.130Z,94.80
2019-04-07T00:27:35.767Z,94.90
2019-04-07T00:30:06.591Z,94.90
2019-04-07T00:32:35.135Z,95.10
2019-04-07T00:35:05.449Z,95.30
2019-04-07T00:37:34.185Z,95.50
2019-04-07T00:40:03.299Z,95.60
2019-04-07T00:42:32.487Z,96.10
2019-04-07T00:45:01.186Z,95.90
2019-04-07T00:47:29.683Z,96.00
2019-04-07T00:49:58.772Z,96.20
2019-04-07T00:52:27.415Z,96.10
2019-04-07T00:54:56.204Z,95.80
2019-04-07T00:57:25.355Z,95.70
2019-04-07T00:59:54.066Z,95.70
2019-04-07T01:02:23.229Z,95.70
2019-04-07T01:04:51.851Z,95.80
2019-04-07T01:07:20.423Z,95.70
2019-04-07T01:09:49.506Z,95.70
2019-04-07T01:12:18.305Z,95.70
2019-04-07T01:14:46.962Z,95.90
2019-04-07T01:17:15.731Z,96.30
2019-04-07T01:19:45.444Z,96.40
2019-04-07T01:22:14.420Z,96.70
2019-04-07T01:24:43.167Z,96.70
2019-04-07T01:27:11.702Z,97.00
2019-04-07T01:29:40.842Z,97.30
2019-04-07T01:32:10.206Z,97.70
2019-04-07T01:34:39.370Z,97.60
2019-04-07T01:37:08.062Z,97.60
2019-04-07T01:39:37.203Z,98.10
2019-04-07T01:42:25.625Z,97.90
2019-04-07T01:44:58.424Z,97.50
2019-04-07T01:47:40.631Z,97.40
2019-04-07T01:50:19.830Z,97.20
2019-04-07T01:52:53.400Z,97.20
2019-04-07T01:55:26.859Z,97.20
2019-04-07T01:58:03.126Z,96.80
2019-04-07T02:00:42.909Z,96.70
2019-04-07T02:03:18.897Z,96.80
2019-04-07T02:06:05.985Z,96.40
2019-04-07T02:08:46.310Z,96.30
2019-04-07T02:11:19.220Z,96.20
2019-04-07T02:14:05.951Z,96.10
2019-04-07T02:16:42.081Z,96.40
2019-04-07T02:19:12.370Z,96.50
2019-04-07T02:21:59.154Z,96.60
2019-04-07T02:24:29.944Z,96.70
2019-04-07T02:27:09.879Z,96.90
2019-04-07T02:29:52.812Z,97.10
2019-04-07T02:32:23.114Z,96.90
2019-04-07T02:34:55.999Z,97.00
2019-04-07T02:37:38.741Z,97.00
2019-04-07T02:40:09.691Z,97.10
2019-04-07T02:42:43.014Z,97.10
2019-04-07T02:45:13.940Z,97.40
2019-04-07T02:47:51.262Z,96.90
2019-04-07T02:50:22.007Z,96.60
2019-04-07T02:52:52.879Z,96.40
2019-04-07T02:55:39.470Z,96.30
2019-04-07T02:58:21.602Z,96.30
2019-04-07T03:01:08.059Z,96.40
2019-04-07T03:03:39.178Z,96.60
2019-04-07T03:06:10.054Z,96.60
2019-04-07T03:08:46.160Z,96.50
2019-04-07T03:11:16.344Z,96.40
2019-04-07T03:13:56.157Z,96.30
2019-04-07T03:16:42.685Z,96.40
2019-04-07T03:19:13.138Z,96.50
2019-04-07T03:22:00.943Z,96.80
2019-04-07T03:24:31.323Z,96.80
2019-04-07T03:27:17.997Z,96.70
2019-04-07T03:29:49.312Z,96.50
2019-04-07T03:32:38.133Z,96.30
2019-04-07T03:35:12.613Z,96.20
2019-04-07T03:37:49.255Z,96.00
2019-04-07T03:40:31.582Z,96.00
2019-04-07T03:43:14.001Z,96.00
2019-04-07T03:45:44.217Z,96.10
2019-04-07T03:48:21.082Z,96.00
2019-04-07T03:51:06.884Z,96.30
2019-04-07T03:53:56.001Z,96.70
2019-04-07T03:56:35.805Z,96.70
2019-04-07T03:59:16.222Z,96.90
2019-04-07T04:02:01.888Z,96.80
2019-04-07T04:04:32.311Z,97.00
2019-04-07T04:07:20.186Z,96.90
2019-04-07T04:09:44.015Z,96.80
2019-04-07T04:12:15.044Z,96.80
2019-04-07T04:14:45.490Z,96.90
2019-04-07T04:17:14.093Z,97.00
2019-04-07T04:19:42.816Z,96.80
2019-04-07T04:22:11.629Z,96.70
2019-04-07T04:24:40.311Z,96.60
2019-04-07T04:27:08.784Z,96.70
2019-04-07T04:29:37.455Z,96.70
2019-04-07T04:32:06.098Z,96.70
2019-04-07T04:34:34.763Z,96.70
2019-04-07T04:37:03.945Z,96.60
2019-04-07T04:39:33.449Z,96.70
2019-04-07T04:42:02.049Z,96.70
2019-04-07T04:44:31.708Z,96.80
2019-04-07T04:47:01.479Z,96.80
2019-04-07T04:49:30.825Z,96.80
2019-04-07T04:52:00.327Z,97.00
2019-04-07T04:54:29.110Z,97.10
2019-04-07T04:56:57.685Z,97.20
2019-04-07T04:59:26.160Z,97.30
2019-04-07T05:01:55.380Z,97.60
2019-04-07T05:04:24.139Z,98.00
2019-04-07T05:06:53.558Z,98.20
2019-04-07T05:09:22.207Z,98.40
2019-04-07T05:11:51.377Z,98.70
2019-04-07T05:14:20.012Z,98.90
2019-04-07T05:16:49.134Z,99.30
2019-04-07T05:19:18.207Z,99.20
2019-04-07T05:21:46.999Z,99.20
2019-04-07T05:24:15.832Z,99.40
2019-04-07T05:26:44.552Z,99.00
2019-04-07T05:29:13.594Z,98.90
2019-04-07T05:31:42.347Z,99.00
2019-04-07T05:34:10.914Z,98.80
2019-04-07T05:36:40.112Z,98.60
2019-04-07T05:39:10.222Z,98.50
2019-04-07T05:41:38.893Z,97.70
2019-04-07T05:44:07.733Z,96.30
2019-04-07T05:46:40.295Z,94.30
2019-04-07T05:49:06.691Z,92.80
2019-04-07T05:51:35.382Z,92.00
2019-04-07T05:54:04.247Z,91.60
2019-04-07T05:56:32.714Z,91.70
2019-04-07T05:59:01.797Z,90.90
2019-04-07T06:01:31.238Z,90.70
2019-04-07T06:04:00.020Z,91.10
2019-04-07T06:18:17.307Z,91.20
2019-04-07T06:20:46.670Z,89.80
2019-04-07T06:23:15.968Z,87.40
2019-04-07T06:25:45.158Z,83.40
2019-04-07T06:28:17.261Z,79.40
2019-04-07T06:30:44.985Z,79.60
2019-04-07T06:33:14.005Z,79.50
2019-04-07T06:35:44.987Z,79.10
2019-04-07T06:38:13.269Z,78.70
2019-04-07T06:40:41.996Z,76.90
2019-04-07T06:43:10.542Z,74.10
2019-04-07T06:45:40.920Z,72.60
2019-04-07T06:48:11.417Z,70.50
2019-04-07T06:50:59.722Z,68.70
2019-04-07T06:53:46.755Z,65.60
2019-04-07T06:56:19.711Z,63.60
2019-04-07T06:58:55.826Z,61.00
2019-04-07T07:01:28.532Z,61.60
2019-04-07T07:04:14.602Z,61.50
2019-04-07T07:06:47.159Z,60.30
2019-04-07T07:09:16.717Z,59.00
2019-04-07T07:12:01.980Z,56.60
2019-04-07T07:14:43.270Z,53.80
2019-04-07T07:17:07.527Z,50.40
2019-04-07T07:19:37.985Z,45.00
2019-04-07T07:22:16.008Z,45.20
2019-04-07T07:24:46.832Z,45.30
2019-04-07T07:27:15.369Z,45.60
2019-04-07T07:29:45.964Z,42.70
2019-04-07T07:32:14.845Z,41.10
2019-04-07T07:34:43.452Z,38.30
2019-04-07T07:37:12.570Z,37.90
2019-04-07T07:39:42.663Z,36.60
2019-04-07T07:42:12.183Z,34.30
2019-04-07T07:44:41.738Z,33.90
2019-04-07T07:47:11.859Z,32.20
2019-04-07T07:49:41.500Z,31.30
2019-04-07T07:52:11.637Z,31.80
2019-04-07T07:54:41.025Z,33.90
2019-04-07T07:57:09.566Z,36.00
2019-04-07T07:59:39.329Z,35.20
2019-04-07T08:02:08.610Z,33.70
2019-04-07T08:04:37.758Z,33.60
2019-04-07T08:07:06.684Z,32.20
2019-04-07T08:09:35.302Z,32.10
2019-04-07T08:12:03.887Z,31.80
2019-04-07T08:14:32.526Z,31.20
2019-04-07T08:17:03.350Z,30.50
2019-04-07T08:19:31.761Z,29.80
2019-04-07T08:22:00.659Z,29.80
2019-04-07T08:24:29.361Z,31.00
2019-04-07T08:26:59.031Z,30.70
2019-04-07T08:29:28.066Z,32.70
2019-04-07T08:31:56.665Z,32.40
2019-04-07T08:34:25.495Z,31.90
2019-04-07T08:36:54.171Z,32.00
2019-04-07T08:39:25.616Z,31.40
2019-04-07T08:41:52.964Z,31.80
2019-04-07T08:44:21.630Z,31.30
2019-04-07T08:46:50.808Z,31.90
2019-04-07T08:49:23.593Z,31.50
2019-04-07T08:51:49.647Z,31.00
2019-04-07T08:54:18.443Z,30.20
2019-04-07T08:56:47.931Z,30.60
2019-04-07T08:59:17.314Z,30.20
2019-04-07T09:01:47.066Z,29.10
2019-04-07T09:04:17.628Z,29.10
2019-04-07T09:06:46.620Z,27.90
2019-04-07T09:09:15.675Z,26.90
2019-04-07T09:11:44.260Z,27.00
2019-04-07T09:14:15.100Z,27.10
2019-04-07T09:17:01.183Z,27.10
2019-04-07T09:19:49.783Z,27.40
2019-04-07T09:22:32.649Z,27.10
2019-04-07T09:25:20.349Z,26.40
2019-04-07T09:27:59.691Z,28.90
2019-04-07T09:30:39.089Z,31.90
2019-04-07T09:33:27.725Z,32.50
2019-04-07T09:36:04.121Z,31.40
2019-04-07T09:38:51.298Z,34.60
2019-04-07T09:41:36.460Z,32.40
2019-04-07T09:44:24.175Z,29.60
2019-04-07T09:47:11.249Z,28.40
2019-04-07T09:49:58.454Z,29.50
2019-04-07T09:52:29.397Z,29.50
2019-04-07T09:55:16.682Z,29.10
2019-04-07T09:57:56.057Z,28.10
2019-04-07T10:00:29.965Z,28.10
2019-04-07T10:03:02.355Z,28.90
2019-04-07T10:05:32.014Z,29.60
2019-04-07T10:08:20.385Z,30.60
2019-04-07T10:11:05.931Z,30.30
2019-04-07T10:13:49.551Z,31.00
2019-04-07T10:16:20.099Z,29.60
2019-04-07T10:18:50.923Z,31.60
2019-04-07T10:21:38.241Z,33.90
2019-04-07T10:24:08.479Z,35.30
2019-04-07T10:26:55.258Z,32.10
2019-04-07T10:29:43.884Z,31.60
2019-04-07T10:32:17.812Z,31.00
2019-04-07T10:34:48.495Z,29.50
2019-04-07T10:37:31.468Z,27.90
2019-04-07T10:40:02.965Z,28.50
2019-04-07T10:42:50.204Z,30.90
2019-04-07T10:45:35.443Z,31.80
2019-04-07T10:48:24.515Z,29.20
2019-04-07T10:51:10.434Z,28.90
2019-04-07T10:53:56.211Z,27.30
2019-04-07T10:56:26.607Z,28.40
2019-04-07T10:59:13.769Z,29.60
2019-04-07T11:01:44.532Z,27.90
2019-04-07T11:04:17.463Z,29.40
2019-04-07T11:06:59.174Z,29.60
2019-04-07T11:09:45.013Z,29.60
2019-04-07T11:12:16.159Z,28.70
2019-04-07T11:14:49.957Z,28.70
2019-04-07T11:17:29.256Z,28.40
2019-04-07T11:20:16.950Z,29.10
2019-04-07T11:23:03.007Z,28.90
2019-04-07T11:25:37.114Z,28.60
2019-04-07T11:28:24.241Z,28.90
2019-04-07T11:31:12.886Z,28.50
2019-04-07T11:33:48.726Z,29.00
2019-04-07T11:36:31.062Z,30.40
2019-04-07T11:39:06.981Z,31.70
2019-04-07T11:41:47.098Z,31.20
2019-04-07T11:44:20.423Z,30.00
2019-04-07T11:46:50.856Z,29.80
2019-04-07T11:49:27.219Z,30.50
2019-04-07T11:52:03.672Z,31.50
2019-04-07T11:54:37.027Z,32.60
2019-04-07T11:57:16.192Z,33.20
2019-04-07T11:59:46.394Z,31.80
2019-04-07T12:02:28.587Z,31.70
2019-04-07T12:05:05.426Z,32.80
2019-04-07T12:07:50.712Z,33.20
2019-04-07T12:10:20.310Z,37.90
2019-04-07T12:12:50.492Z,38.80
2019-04-07T12:15:36.927Z,39.80
2019-04-07T12:18:23.443Z,39.20
2019-04-07T12:21:09.132Z,38.90
2019-04-07T12:23:45.287Z,38.40
2019-04-07T12:26:21.091Z,39.80
2019-04-07T12:28:56.855Z,41.20
2019-04-07T12:31:36.301Z,40.20
2019-04-07T12:34:09.457Z,40.70
2019-04-07T12:36:38.664Z,39.90
2019-04-07T12:39:09.450Z,40.70
2019-04-07T12:41:40.117Z,41.30
2019-04-07T12:44:10.427Z,41.80
2019-04-07T12:46:49.723Z,41.80
2019-04-07T12:49:20.812Z,41.80
2019-04-07T12:52:09.741Z,41.40
2019-04-07T12:54:52.552Z,39.80
2019-04-07T12:57:26.168Z,39.90
2019-04-07T12:59:57.899Z,40.80
2019-04-07T13:02:28.547Z,42.20
2019-04-07T13:05:03.887Z,41.80
2019-04-07T13:07:33.549Z,41.10
2019-04-07T13:10:07.262Z,40.80
2019-04-07T13:12:41.142Z,40.40
2019-04-07T13:15:14.147Z,38.60
2019-04-07T13:17:46.342Z,40.00
2019-04-07T13:20:26.819Z,39.50
2019-04-07T13:23:02.923Z,40.10
2019-04-07T13:25:42.866Z,40.20
2019-04-07T13:28:14.182Z,39.90
2019-04-07T13:30:54.665Z,39.90
2019-04-07T13:33:41.447Z,39.80
2019-04-07T13:36:23.645Z,40.20
2019-04-07T13:38:57.840Z,40.40
2019-04-07T13:41:40.887Z,40.10
2019-04-07T13:44:13.047Z,39.20
2019-04-07T13:46:55.409Z,39.00
2019-04-07T13:49:42.179Z,39.20
2019-04-07T13:52:22.200Z,40.20
2019-04-07T13:54:59.105Z,40.20
2019-04-07T13:57:32.154Z,40.80
2019-04-07T14:00:20.153Z,39.80
2019-04-07T14:03:08.840Z,38.70
2019-04-07T14:05:40.201Z,38.30
2019-04-07T14:08:28.864Z,37.90
2019-04-07T14:11:04.352Z,39.00
2019-04-07T14:13:42.439Z,38.50
2019-04-07T14:16:12.744Z,39.30
2019-04-07T14:18:54.362Z,39.10
2019-04-07T14:21:35.638Z,39.80
2019-04-07T14:24:08.127Z,38.90
2019-04-07T14:26:38.824Z,38.90
2019-04-07T14:29:15.330Z,39.60
2019-04-07T14:32:02.246Z,40.20
2019-04-07T14:34:32.747Z,39.20
2019-04-07T14:37:09.862Z,38.50
2019-04-07T14:39:43.405Z,37.60
2019-04-07T14:42:30.483Z,38.10
2019-04-07T14:45:07.773Z,39.00
2019-04-07T14:47:53.508Z,39.40
2019-04-07T14:50:29.899Z,39.70
2019-04-07T14:53:00.721Z,39.70
2019-04-07T14:55:32.395Z,39.40
2019-04-07T14:58:06.683Z,39.20
2019-04-07T15:00:52.060Z,39.60
2019-04-07T15:03:21.370Z,40.50
2019-04-07T15:05:56.343Z,40.50
2019-04-07T15:08:31.943Z,40.60
2019-04-07T15:11:04.643Z,41.20
2019-04-07T15:13:33.229Z,41.80
2019-04-07T15:16:02.369Z,40.10
2019-04-07T15:18:31.027Z,39.60
2019-04-07T15:20:59.621Z,39.90
2019-04-07T15:23:30.981Z,40.30
2019-04-07T15:25:59.043Z,38.40
2019-04-07T15:28:30.687Z,38.80
2019-04-07T15:30:58.813Z,38.20
2019-04-07T15:33:31.412Z,38.10
2019-04-07T15:35:58.840Z,38.30
2019-04-07T15:38:28.498Z,38.20
2019-04-07T15:40:58.911Z,38.60
2019-04-07T15:43:27.918Z,38.10
2019-04-07T15:45:56.853Z,38.30
2019-04-07T15:48:26.868Z,39.50
2019-04-07T15:50:56.209Z,40.10
2019-04-07T15:53:25.584Z,40.00
2019-04-07T15:56:02.067Z,39.90
2019-04-07T15:58:26.809Z,39.80
2019-04-07T16:00:54.897Z,39.30
2019-04-07T16:03:23.444Z,39.30
2019-04-07T16:05:52.371Z,39.30
2019-04-07T16:08:20.963Z,38.60
2019-04-07T16:10:52.076Z,39.10
2019-04-07T16:13:19.838Z,39.30
2019-04-07T16:15:50.954Z,38.20
2019-04-07T16:18:18.986Z,38.00
2019-04-07T16:20:48.352Z,38.50
2019-04-07T16:23:18.475Z,38.20
2019-04-07T16:25:47.526Z,38.60
2019-04-07T16:28:16.317Z,39.00
2019-04-07T16:30:48.637Z,38.50
2019-04-07T16:33:15.303Z,39.20
2019-04-07T16:35:48.534Z,38.60
2019-04-07T16:38:14.231Z,39.30
2019-04-07T16:40:43.469Z,40.10
2019-04-07T16:43:15.407Z,40.60
2019-04-07T16:45:45.611Z,40.80
2019-04-07T16:48:12.851Z,40.60
2019-04-07T16:50:41.819Z,41.10
2019-04-07T16:53:10.751Z,40.70
2019-04-07T16:55:41.608Z,41.40
2019-04-07T16:58:10.358Z,40.80
2019-04-07T17:00:39.798Z,41.40
2019-04-07T17:03:09.875Z,41.60
2019-04-07T17:05:39.693Z,41.90
2019-04-07T17:08:08.658Z,41.90
2019-04-07T17:10:37.475Z,42.50
2019-04-07T17:13:16.970Z,42.30
2019-04-07T17:15:39.548Z,42.20
2019-04-07T17:18:10.229Z,42.80
2019-04-07T17:20:38.892Z,43.60
2019-04-07T17:23:07.443Z,43.90
2019-04-07T17:25:36.136Z,43.60
2019-04-07T17:28:06.381Z,43.80
2019-04-07T17:30:37.909Z,43.90
2019-04-07T17:33:06.462Z,44.20
2019-04-07T17:35:35.767Z,44.20
2019-04-07T17:38:06.899Z,44.80
2019-04-07T17:40:37.780Z,44.90
2019-04-07T17:43:28.273Z,45.00
2019-04-07T17:46:07.278Z,45.70
2019-04-07T17:48:50.421Z,46.40
2019-04-07T17:51:15.527Z,46.30
2019-04-07T17:53:48.479Z,47.70
2019-04-07T17:56:27.267Z,48.50
2019-04-07T17:58:59.824Z,49.70
2019-04-07T18:01:31.259Z,49.40
2019-04-07T18:04:13.993Z,50.10
2019-04-07T18:06:48.131Z,50.90
2019-04-07T18:09:20.912Z,51.20
2019-04-07T18:11:50.219Z,51.50
2019-04-07T18:14:37.357Z,51.90
2019-04-07T18:17:10.134Z,51.90
2019-04-07T18:19:43.196Z,52.50
2019-04-07T18:22:13.728Z,52.40
2019-04-07T18:24:44.889Z,52.30
2019-04-07T18:27:23.819Z,53.00
2019-04-07T18:30:03.504Z,53.20
2019-04-07T18:32:37.339Z,53.70
2019-04-07T18:35:11.117Z,53.80
2019-04-07T18:37:52.784Z,54.40
2019-04-07T18:40:38.659Z,55.20
2019-04-07T18:43:13.835Z,56.30
2019-04-07T18:45:52.217Z,57.10
2019-04-07T18:48:28.838Z,57.10
2019-04-07T18:51:12.610Z,57.30
2019-04-07T18:54:02.649Z,58.00
2019-04-07T18:56:47.448Z,59.10
2019-04-07T18:59:20.459Z,59.60
2019-04-07T19:01:51.072Z,60.30
2019-04-07T19:04:39.437Z,61.30
2019-04-07T19:07:09.808Z,62.30
2019-04-07T19:09:41.109Z,63.20
2019-04-07T19:12:18.970Z,63.70
2019-04-07T19:15:07.903Z,64.10
2019-04-07T19:17:37.191Z,64.90
2019-04-07T19:20:17.314Z,65.80
2019-04-07T19:23:00.204Z,66.70
2019-04-07T19:25:48.955Z,67.80
2019-04-07T19:28:19.055Z,68.80
2019-04-07T19:30:52.539Z,69.90
2019-04-07T19:33:26.854Z,70.90
2019-04-07T19:36:03.111Z,71.50
2019-04-07T19:38:43.241Z,71.70
2019-04-07T19:41:14.125Z,72.20
2019-04-07T19:44:00.769Z,72.90
2019-04-07T19:46:31.542Z,73.30
2019-04-07T19:49:07.873Z,74.30
2019-04-07T19:51:54.805Z,74.60
2019-04-07T19:54:27.677Z,74.60
2019-04-07T19:57:14.154Z,74.40
2019-04-07T19:59:52.827Z,74.60
2019-04-07T20:02:24.041Z,74.80
2019-04-07T20:04:55.012Z,74.90
2019-04-07T20:07:31.550Z,75.00
2019-04-07T20:10:21.569Z,74.80
2019-04-07T20:12:52.001Z,75.00
2019-04-07T20:15:22.250Z,74.50
2019-04-07T20:18:08.881Z,75.50
2019-04-07T20:20:43.701Z,75.70
2019-04-07T20:23:18.384Z,76.50
2019-04-07T20:26:07.963Z,77.40
2019-04-07T20:28:45.043Z,76.20
2019-04-07T20:31:31.330Z,76.10
2019-04-07T20:34:03.900Z,76.00
2019-04-07T20:36:33.832Z,75.40
2019-04-07T20:39:09.499Z,75.90
2019-04-07T20:41:45.671Z,76.30
2019-04-07T20:44:15.953Z,76.80
2019-04-07T20:46:49.202Z,77.30
2019-04-07T20:49:22.246Z,77.70
2019-04-07T20:51:58.526Z,78.50
2019-04-07T20:54:35.654Z,78.20
2019-04-07T20:57:09.251Z,78.60
2019-04-07T20:59:50.146Z,79.40
2019-04-07T21:02:34.080Z,79.80
2019-04-07T21:05:07.095Z,80.20
2019-04-07T21:07:57.777Z,81.10
2019-04-07T21:10:27.804Z,81.70
2019-04-07T21:13:16.754Z,81.70
2019-04-07T21:15:59.400Z,81.70
2019-04-07T21:18:39.123Z,82.50
2019-04-07T21:21:25.567Z,82.80
2019-04-07T21:23:55.832Z,83.60
2019-04-07T21:26:27.491Z,84.30
2019-04-07T21:28:58.814Z,84.90
2019-04-07T21:31:29.082Z,85.80
2019-04-07T21:34:08.767Z,86.00
2019-04-07T21:36:41.826Z,86.30
2019-04-07T21:39:12.927Z,87.40
2019-04-07T21:41:59.742Z,87.90
2019-04-07T21:44:46.162Z,88.40
2019-04-07T21:47:34.646Z,88.70
2019-04-07T21:50:21.882Z,90.10
2019-04-07T21:52:55.370Z,90.10
2019-04-07T21:55:40.161Z,90.20
2019-04-07T21:58:10.274Z,90.30
2019-04-07T22:00:55.966Z,90.80
2019-04-07T22:03:32.079Z,90.90
2019-04-07T22:06:08.906Z,91.10
2019-04-07T22:08:46.529Z,91.60
2019-04-07T22:11:15.524Z,91.30
2019-04-07T22:13:44.893Z,91.40
2019-04-07T22:16:14.286Z,91.40
2019-04-07T22:18:43.078Z,91.20
2019-04-07T22:21:11.815Z,90.90
2019-04-07T22:23:40.359Z,91.00
2019-04-07T22:26:12.655Z,90.90
2019-04-07T22:28:39.474Z,91.10
2019-04-07T22:31:08.904Z,91.30
2019-04-07T22:33:38.951Z,91.30
2019-04-07T22:36:11.139Z,91.40
2019-04-07T22:38:37.890Z,91.70
2019-04-07T22:41:07.400Z,91.80
2019-04-07T22:43:36.770Z,91.90
2019-04-07T22:46:12.687Z,92.20
2019-04-07T22:48:36.413Z,92.30
2019-04-07T22:51:10.991Z,92.40
2019-04-07T22:53:35.691Z,92.70
2019-04-07T22:56:07.368Z,92.90
2019-04-07T22:58:34.634Z,93.00
2019-04-07T23:01:03.199Z,93.00
2019-04-07T23:03:32.507Z,93.20
2019-04-07T23:06:01.145Z,93.20
2019-04-07T23:08:29.765Z,93.00
2019-04-07T23:10:58.434Z,93.00
2019-04-07T23:13:27.928Z,93.30
2019-04-07T23:16:07.307Z,93.50
2019-04-07T23:18:27.583Z,93.60
2019-04-07T23:20:56.166Z,93.60
2019-04-07T23:23:24.727Z,93.80
2019-04-07T23:25:53.574Z,93.80
2019-04-07T23:28:22.938Z,94.00
2019-04-07T23:30:51.611Z,94.20
2019-04-07T23:33:20.242Z,94.30
2019-04-07T23:35:49.007Z,94.10
2019-04-07T23:38:17.804Z,94.00
2019-04-07T23:40:46.562Z,93.80
2019-04-07T23:43:15.286Z,94.00
2019-04-07T23:45:44.181Z,93.90
2019-04-07T23:48:13.729Z,94.00
2019-04-07T23:50:42.390Z,94.10
2019-04-07T23:53:47.478Z,94.30
2019-04-07T23:56:15.978Z,94.40
2019-04-07T23:58:45.552Z,94.60
